createdAt,value
2022-10-01T00:01:16.010Z,97958.75
2022-10-01T00:03:43.261Z,97951.00
2022-10-01T00:06:17.582Z,97954.09
2022-10-01T00:08:48.689Z,97950.75
2022-10-01T00:11:24.287Z,97947.22
2022-10-01T00:13:51.848Z,97944.41
2022-10-01T00:16:20.980Z,97952.34
2022-10-01T00:18:48.757Z,97945.00
2022-10-01T00:21:18.371Z,97948.91
2022-10-01T00:23:46.145Z,97937.16
2022-10-01T00:26:15.373Z,97932.75
2022-10-01T00:28:43.595Z,97921.94
2022-10-01T00:31:10.974Z,97915.63
2022-10-01T00:33:38.424Z,97915.38
2022-10-01T00:36:06.446Z,97906.16
2022-10-01T00:38:33.864Z,97910.53
2022-10-01T00:41:01.028Z,97901.03
2022-10-01T00:43:29.919Z,97894.72
2022-10-01T00:46:02.300Z,97892.91
2022-10-01T00:48:33.846Z,97894.91
2022-10-01T00:51:00.867Z,97892.47
2022-10-01T00:53:27.519Z,97893.34
2022-10-01T00:55:56.858Z,97888.03
2022-10-01T00:58:24.794Z,97877.72
2022-10-01T01:00:53.212Z,97891.69
2022-10-01T01:03:19.603Z,97887.88
2022-10-01T01:05:47.698Z,97877.41
2022-10-01T01:08:15.192Z,97873.56
2022-10-01T01:10:52.864Z,97870.06
2022-10-01T01:13:56.139Z,97870.56
2022-10-01T01:16:34.348Z,97873.56
2022-10-01T01:19:12.924Z,97865.41
2022-10-01T01:21:44.173Z,97867.38
2022-10-01T01:24:28.843Z,97863.53
2022-10-01T01:27:00.675Z,97860.72
2022-10-01T01:29:41.171Z,97854.91
2022-10-01T01:32:15.031Z,97851.28
2022-10-01T01:34:45.422Z,97849.06
2022-10-01T01:37:15.391Z,97852.06
2022-10-01T01:39:46.236Z,97839.44
2022-10-01T01:42:22.935Z,97850.53
2022-10-01T01:44:53.129Z,97841.91
2022-10-01T01:47:23.491Z,97843.31
2022-10-01T01:49:52.607Z,97843.84
2022-10-01T01:52:19.113Z,97838.53
2022-10-01T01:54:48.073Z,97838.66
2022-10-01T01:57:17.472Z,97842.97
2022-10-01T01:59:44.000Z,97838.59
2022-10-01T02:02:35.439Z,97829.97
2022-10-01T02:05:25.639Z,97832.47
2022-10-01T02:07:52.770Z,97831.25
2022-10-01T02:10:53.973Z,97820.41
2022-10-01T02:13:38.181Z,97806.75
2022-10-01T02:17:05.997Z,97814.28
2022-10-01T02:20:01.975Z,97811.16
2022-10-01T02:22:37.262Z,97809.03
2022-10-01T02:25:06.564Z,97822.75
2022-10-01T02:27:40.588Z,97816.94
2022-10-01T02:30:10.449Z,97810.13
2022-10-01T02:32:40.507Z,97801.31
2022-10-01T02:35:10.981Z,97798.81
2022-10-01T02:37:39.382Z,97801.81
2022-10-01T02:40:08.940Z,97780.00
2022-10-01T02:42:36.657Z,97795.97
2022-10-01T02:45:04.868Z,97780.34
2022-10-01T02:47:44.523Z,97773.00
2022-10-01T02:50:12.781Z,97772.97
2022-10-01T02:52:52.699Z,97770.31
2022-10-01T02:55:28.727Z,97763.78
2022-10-01T02:57:56.207Z,97765.13
2022-10-01T03:00:22.963Z,97760.34
2022-10-01T03:02:50.100Z,97758.28
2022-10-01T03:05:17.915Z,97765.81
2022-10-01T03:07:44.478Z,97762.47
2022-10-01T03:10:12.111Z,97765.44
2022-10-01T03:12:44.043Z,97783.78
2022-10-01T03:15:11.752Z,97779.66
2022-10-01T03:17:38.210Z,97779.31
2022-10-01T03:20:05.654Z,97773.00
2022-10-01T03:22:33.034Z,97782.66
2022-10-01T03:24:59.810Z,97774.50
2022-10-01T03:27:26.311Z,97773.50
2022-10-01T03:29:52.774Z,97770.16
2022-10-01T03:32:20.376Z,97771.84
2022-10-01T03:34:46.875Z,97772.66
2022-10-01T03:37:13.348Z,97768.00
2022-10-01T03:39:39.838Z,97780.56
2022-10-01T03:42:07.058Z,97777.69
2022-10-01T03:44:33.938Z,97776.22
2022-10-01T03:47:00.545Z,97766.56
2022-10-01T03:49:27.810Z,97759.88
2022-10-01T03:51:54.372Z,97757.59
2022-10-01T03:54:21.588Z,97767.84
2022-10-01T03:56:48.832Z,97760.81
2022-10-01T03:59:15.199Z,97757.59
2022-10-01T04:01:41.658Z,97751.94
2022-10-01T04:04:08.124Z,97762.00
2022-10-01T04:06:34.587Z,97760.41
2022-10-01T04:09:01.215Z,97754.19
2022-10-01T04:11:27.899Z,97756.91
2022-10-01T04:13:54.293Z,97758.22
2022-10-01T04:16:20.748Z,97762.06
2022-10-01T04:18:47.372Z,97753.97
2022-10-01T04:21:15.451Z,97753.19
2022-10-01T04:23:42.277Z,97757.69
2022-10-01T04:26:09.240Z,97736.59
2022-10-01T04:28:35.645Z,97740.19
2022-10-01T04:31:20.688Z,97733.94
2022-10-01T04:33:47.413Z,97742.06
2022-10-01T04:36:13.756Z,97723.06
2022-10-01T04:38:40.145Z,97725.44
2022-10-01T04:41:07.153Z,97712.53
2022-10-01T04:43:33.509Z,97709.72
2022-10-01T04:45:59.876Z,97697.63
2022-10-01T04:48:26.349Z,97699.78
2022-10-01T04:50:52.844Z,97692.75
2022-10-01T04:53:19.253Z,97712.97
2022-10-01T04:55:46.608Z,97690.72
2022-10-01T04:58:13.065Z,97686.94
2022-10-01T05:00:39.876Z,97685.25
2022-10-01T05:03:06.368Z,97695.41
2022-10-01T05:05:34.910Z,97695.88
2022-10-01T05:08:01.984Z,97688.13
2022-10-01T05:10:29.245Z,97705.16
2022-10-01T05:12:55.624Z,97722.47
2022-10-01T05:15:21.994Z,97734.34
2022-10-01T05:17:48.421Z,97735.19
2022-10-01T05:20:20.773Z,97732.94
2022-10-01T05:22:48.788Z,97713.22
2022-10-01T05:25:16.409Z,97710.22
2022-10-01T05:27:42.882Z,97673.19
2022-10-01T05:30:10.731Z,97640.78
2022-10-01T05:32:37.764Z,97662.75
2022-10-01T05:35:06.994Z,97657.69
2022-10-01T05:37:33.998Z,97657.91
2022-10-01T05:40:00.907Z,97647.28
2022-10-01T05:42:27.310Z,97652.41
2022-10-01T05:44:53.702Z,97622.25
2022-10-01T05:47:20.890Z,97630.69
2022-10-01T05:49:47.291Z,97625.88
2022-10-01T05:52:15.527Z,97622.72
2022-10-01T05:54:41.978Z,97634.44
2022-10-01T05:57:09.284Z,97618.31
2022-10-01T05:59:35.962Z,97609.44
2022-10-01T06:02:04.230Z,97630.78
2022-10-01T06:04:31.376Z,97614.41
2022-10-01T06:06:58.220Z,97621.25
2022-10-01T06:09:24.704Z,97621.41
2022-10-01T06:11:51.215Z,97613.09
2022-10-01T06:14:17.820Z,97616.75
2022-10-01T06:16:44.650Z,97616.47
2022-10-01T06:19:11.083Z,97619.25
2022-10-01T06:21:37.837Z,97606.13
2022-10-01T06:24:05.154Z,97609.09
2022-10-01T06:26:31.645Z,97612.03
2022-10-01T06:28:58.019Z,97614.94
2022-10-01T06:31:25.000Z,97616.94
2022-10-01T06:33:51.463Z,97605.66
2022-10-01T06:36:17.974Z,97611.97
2022-10-01T06:38:44.984Z,97611.00
2022-10-01T06:41:12.029Z,97622.13
2022-10-01T06:43:38.900Z,97591.03
2022-10-01T06:46:05.557Z,97589.41
2022-10-01T06:48:32.609Z,97615.63
2022-10-01T06:50:59.526Z,97609.66
2022-10-01T06:53:28.168Z,97609.69
2022-10-01T06:55:54.956Z,97604.22
2022-10-01T06:58:26.200Z,97589.41
2022-10-01T07:00:58.927Z,97616.31
2022-10-01T07:03:25.736Z,97628.63
2022-10-01T07:05:52.239Z,97624.63
2022-10-01T07:08:19.052Z,97586.91
2022-10-01T07:10:45.690Z,97582.59
2022-10-01T07:13:17.970Z,97580.94
2022-10-01T07:15:45.258Z,97568.81
2022-10-01T07:18:12.733Z,97566.31
2022-10-01T07:20:40.373Z,97540.41
2022-10-01T07:23:15.214Z,97575.78
2022-10-01T07:25:42.488Z,97565.13
2022-10-01T07:28:17.902Z,97565.94
2022-10-01T07:30:47.845Z,97575.25
2022-10-01T07:33:18.383Z,97579.56
2022-10-01T07:35:47.691Z,97571.09
2022-10-01T07:38:14.048Z,97536.53
2022-10-01T07:40:40.575Z,97519.22
2022-10-01T07:43:07.025Z,97551.34
2022-10-01T07:45:33.431Z,97569.28
2022-10-01T07:48:02.208Z,97546.19
2022-10-01T07:50:32.972Z,97549.66
2022-10-01T07:52:59.875Z,97543.34
2022-10-01T07:55:30.494Z,97535.69
2022-10-01T07:57:59.419Z,97526.03
2022-10-01T08:00:27.122Z,97548.00
2022-10-01T08:02:56.136Z,97551.81
2022-10-01T08:05:28.989Z,97553.63
2022-10-01T08:08:00.482Z,97551.31
2022-10-01T08:10:27.330Z,97550.63
2022-10-01T08:12:59.645Z,97561.41
2022-10-01T08:15:26.074Z,97564.75
2022-10-01T08:17:52.460Z,97564.91
2022-10-01T08:20:19.451Z,97566.56
2022-10-01T08:22:45.894Z,97566.56
2022-10-01T08:25:14.873Z,97571.06
2022-10-01T08:27:41.390Z,97587.19
2022-10-01T08:30:08.338Z,97585.66
2022-10-01T08:32:34.719Z,97597.31
2022-10-01T08:35:02.428Z,97597.16
2022-10-01T08:37:29.917Z,97595.66
2022-10-01T08:39:56.859Z,97597.66
2022-10-01T08:42:34.709Z,97601.97
2022-10-01T08:45:06.347Z,97604.31
2022-10-01T08:47:40.468Z,97611.09
2022-10-01T08:50:27.329Z,97596.78
2022-10-01T08:53:02.581Z,97601.13
2022-10-01T08:55:36.476Z,97589.16
2022-10-01T08:58:10.071Z,97590.50
2022-10-01T09:00:42.792Z,97587.28
2022-10-01T09:03:14.801Z,97586.03
2022-10-01T09:05:52.510Z,97585.28
2022-10-01T09:09:01.632Z,97574.09
2022-10-01T09:11:34.357Z,97580.03
2022-10-01T09:14:19.335Z,97585.47
2022-10-01T09:16:46.163Z,97582.03
2022-10-01T09:19:31.667Z,97581.25
2022-10-01T09:22:02.171Z,97574.75
2022-10-01T09:24:43.699Z,97597.19
2022-10-01T09:27:18.561Z,97586.94
2022-10-01T09:29:53.130Z,97595.84
2022-10-01T09:32:24.508Z,97590.06
2022-10-01T09:34:52.159Z,97610.44
2022-10-01T09:37:41.955Z,97604.69
2022-10-01T09:40:33.655Z,97616.28
2022-10-01T09:43:00.813Z,97607.31
2022-10-01T09:45:27.342Z,97603.59
2022-10-01T09:47:58.464Z,97602.84
2022-10-01T09:50:34.681Z,97607.72
2022-10-01T09:53:02.208Z,97601.78
2022-10-01T09:55:40.938Z,97594.50
2022-10-01T09:58:11.773Z,97598.75
2022-10-01T10:00:40.118Z,97605.53
2022-10-01T10:03:06.995Z,97603.16
2022-10-01T10:05:43.379Z,97595.13
2022-10-01T10:08:15.879Z,97614.28
2022-10-01T10:10:58.297Z,97610.06
2022-10-01T10:13:39.458Z,97614.00
2022-10-01T10:16:12.055Z,97618.34
2022-10-01T10:18:40.081Z,97628.28
2022-10-01T10:21:15.166Z,97615.06
2022-10-01T10:23:59.891Z,97608.72
2022-10-01T10:26:39.361Z,97624.06
2022-10-01T10:29:08.492Z,97613.94
2022-10-01T10:31:41.931Z,97627.53
2022-10-01T10:34:17.621Z,97625.19
2022-10-01T10:36:46.150Z,97625.19
2022-10-01T10:39:24.486Z,97629.72
2022-10-01T10:41:52.878Z,97626.16
2022-10-01T10:44:22.280Z,97626.59
2022-10-01T10:46:51.351Z,97622.25
2022-10-01T10:49:21.650Z,97633.97
2022-10-01T10:51:55.946Z,97640.34
2022-10-01T10:54:25.367Z,97638.31
2022-10-01T10:57:02.244Z,97638.69
2022-10-01T10:59:31.720Z,97637.59
2022-10-01T11:02:00.592Z,97635.44
2022-10-01T11:04:32.771Z,97642.78
2022-10-01T11:07:01.633Z,97636.53
2022-10-01T11:09:44.179Z,97651.41
2022-10-01T11:12:23.387Z,97638.38
2022-10-01T11:15:02.234Z,97651.22
2022-10-01T11:17:43.880Z,97656.13
2022-10-01T11:20:37.799Z,97652.28
2022-10-01T11:23:27.991Z,97645.97
2022-10-01T11:26:24.961Z,97649.44
2022-10-01T11:29:07.848Z,97641.06
2022-10-01T11:31:52.704Z,97647.69
2022-10-01T11:34:50.458Z,97653.06
2022-10-01T11:37:48.936Z,97672.69
2022-10-01T11:40:27.270Z,97659.22
2022-10-01T11:43:00.098Z,97651.22
2022-10-01T11:45:32.009Z,97667.00
2022-10-01T11:48:09.025Z,97669.50
2022-10-01T11:50:40.659Z,97673.56
2022-10-01T11:53:30.646Z,97665.78
2022-10-01T11:56:38.069Z,97664.78
2022-10-01T11:59:23.735Z,97657.63
2022-10-01T12:02:15.241Z,97652.34
2022-10-01T12:04:49.599Z,97647.47
2022-10-01T12:07:38.254Z,97648.66
2022-10-01T12:10:39.206Z,97661.75
2022-10-01T12:13:19.764Z,97656.19
2022-10-01T12:15:53.664Z,97655.66
2022-10-01T12:18:49.127Z,97647.72
2022-10-01T12:21:43.560Z,97647.25
2022-10-01T12:24:16.240Z,97658.47
2022-10-01T12:27:14.605Z,97649.75
2022-10-01T12:29:43.969Z,97657.22
2022-10-01T12:32:30.115Z,97650.59
2022-10-01T12:35:17.891Z,97657.19
2022-10-01T12:38:06.286Z,97660.72
2022-10-01T12:40:47.887Z,97652.16
2022-10-01T12:43:47.237Z,97648.84
2022-10-01T12:46:58.632Z,97659.19
2022-10-01T12:49:35.186Z,97654.50
2022-10-01T12:52:17.018Z,97653.75
2022-10-01T12:55:04.834Z,97653.66
2022-10-01T12:58:06.276Z,97656.47
2022-10-01T13:01:04.276Z,97649.22
2022-10-01T13:04:03.386Z,97651.59
2022-10-01T13:06:45.705Z,97658.69
2022-10-01T13:09:15.107Z,97656.66
2022-10-01T13:11:51.012Z,97662.81
2022-10-01T13:14:19.151Z,97658.50
2022-10-01T13:17:02.582Z,97665.09
2022-10-01T13:19:44.220Z,97663.66
2022-10-01T13:22:14.720Z,97670.53
2022-10-01T13:24:50.044Z,97665.53
2022-10-01T13:27:39.103Z,97666.13
2022-10-01T13:30:17.766Z,97669.22
2022-10-01T13:33:05.182Z,97666.09
2022-10-01T13:35:39.593Z,97668.13
2022-10-01T13:38:17.389Z,97678.50
2022-10-01T13:40:44.238Z,97678.75
2022-10-01T13:43:24.189Z,97678.72
2022-10-01T13:45:55.262Z,97680.00
2022-10-01T13:48:32.364Z,97676.59
2022-10-01T13:51:17.392Z,97669.59
2022-10-01T13:53:44.871Z,97676.63
2022-10-01T13:56:14.487Z,97672.53
2022-10-01T13:58:43.387Z,97682.31
2022-10-01T14:01:19.938Z,97680.88
2022-10-01T14:04:19.095Z,97684.63
2022-10-01T14:06:59.858Z,97686.38
2022-10-01T14:09:40.970Z,97695.34
2022-10-01T14:12:40.680Z,97683.72
2022-10-01T14:15:38.558Z,97688.09
2022-10-01T14:18:34.364Z,97671.75
2022-10-01T14:21:16.094Z,97680.50
2022-10-01T14:23:57.831Z,97688.44
2022-10-01T14:26:33.937Z,97676.53
2022-10-01T14:29:16.771Z,97685.13
2022-10-01T14:31:56.761Z,97685.13
2022-10-01T14:34:41.294Z,97693.81
2022-10-01T14:37:16.216Z,97695.00
2022-10-01T14:39:43.716Z,97700.41
2022-10-01T14:42:17.107Z,97700.38
2022-10-01T14:44:46.443Z,97710.53
2022-10-01T14:47:24.002Z,97714.84
2022-10-01T14:49:51.806Z,97714.97
2022-10-01T14:52:22.307Z,97709.47
2022-10-01T14:54:59.045Z,97707.72
2022-10-01T14:57:30.130Z,97714.38
2022-10-01T14:59:59.476Z,97721.16
2022-10-01T15:02:27.640Z,97730.03
2022-10-01T15:04:56.899Z,97734.59
2022-10-01T15:07:25.617Z,97736.97
2022-10-01T15:09:52.171Z,97743.41
2022-10-01T15:12:22.000Z,97753.84
2022-10-01T15:14:53.517Z,97758.50
2022-10-01T15:17:24.792Z,97764.28
2022-10-01T15:19:54.839Z,97769.84
2022-10-01T15:22:26.214Z,97772.19
2022-10-01T15:24:57.772Z,97790.72
2022-10-01T15:27:24.874Z,97786.19
2022-10-01T15:29:56.478Z,97792.16
2022-10-01T15:32:24.146Z,97800.38
2022-10-01T15:35:02.049Z,97790.00
2022-10-01T15:37:34.795Z,97808.88
2022-10-01T15:40:02.526Z,97806.03
2022-10-01T15:42:34.140Z,97813.50
2022-10-01T15:45:09.409Z,97816.34
2022-10-01T15:47:37.872Z,97825.41
2022-10-01T15:50:10.277Z,97796.16
2022-10-01T15:53:06.830Z,97809.81
2022-10-01T15:55:39.025Z,97814.00
2022-10-01T15:58:11.545Z,97816.00
2022-10-01T16:00:47.622Z,97826.44
2022-10-01T16:03:23.912Z,97831.78
2022-10-01T16:05:54.881Z,97837.81
2022-10-01T16:08:24.577Z,97856.16
2022-10-01T16:11:17.756Z,97852.00
2022-10-01T16:13:50.277Z,97863.09
2022-10-01T16:16:29.091Z,97863.44
2022-10-01T16:19:18.891Z,97871.22
2022-10-01T16:22:17.323Z,97870.84
2022-10-01T16:24:55.795Z,97866.31
2022-10-01T16:27:25.730Z,97870.84
2022-10-01T16:30:05.370Z,97871.47
2022-10-01T16:32:32.702Z,97876.91
2022-10-01T16:35:19.560Z,97895.28
2022-10-01T16:37:50.237Z,97905.00
2022-10-01T16:40:18.558Z,97903.88
2022-10-01T16:42:46.153Z,97917.78
2022-10-01T16:45:18.461Z,97913.75
2022-10-01T16:47:46.115Z,97912.88
2022-10-01T16:50:15.422Z,97912.44
2022-10-01T16:52:42.219Z,97913.25
2022-10-01T16:55:17.203Z,97917.22
2022-10-01T16:57:44.011Z,97926.31
2022-10-01T17:00:16.931Z,97932.97
2022-10-01T17:02:43.804Z,97943.63
2022-10-01T17:05:31.798Z,97941.25
2022-10-01T17:08:01.289Z,97954.66
2022-10-01T17:10:31.640Z,97959.31
2022-10-01T17:12:59.551Z,97953.69
2022-10-01T17:15:27.336Z,97963.28
2022-10-01T17:17:55.125Z,97977.25
2022-10-01T17:20:22.489Z,97977.72
2022-10-01T17:22:49.617Z,97982.09
2022-10-01T17:25:19.775Z,97987.06
2022-10-01T17:27:46.784Z,97991.19
2022-10-01T17:30:13.606Z,97986.41
2022-10-01T17:32:42.746Z,97990.38
2022-10-01T17:35:14.115Z,97996.81
2022-10-01T17:37:41.720Z,98009.47
2022-10-01T17:40:09.327Z,98031.91
2022-10-01T17:42:36.079Z,98044.56
2022-10-01T17:45:06.191Z,98029.16
2022-10-01T17:47:33.609Z,98030.34
2022-10-01T17:50:00.784Z,98040.66
2022-10-01T17:52:27.408Z,98040.03
2022-10-01T17:54:53.856Z,98046.91
2022-10-01T17:57:20.957Z,98061.00
2022-10-01T17:59:47.726Z,98065.91
2022-10-01T18:02:39.907Z,98070.97
2022-10-01T18:05:03.915Z,98078.31
2022-10-01T18:07:30.597Z,98076.81
2022-10-01T18:09:57.181Z,98082.31
2022-10-01T18:12:23.579Z,98091.88
2022-10-01T18:14:50.002Z,98089.06
2022-10-01T18:17:16.532Z,98102.41
2022-10-01T18:19:58.390Z,98114.34
2022-10-01T18:22:24.828Z,98116.00
2022-10-01T18:24:51.688Z,98117.38
2022-10-01T18:27:18.299Z,98119.34
2022-10-01T18:29:44.726Z,98129.03
2022-10-01T18:32:22.170Z,98127.88
2022-10-01T18:34:59.581Z,98147.41
2022-10-01T18:37:35.974Z,98148.28
2022-10-01T18:40:16.133Z,98150.25
2022-10-01T18:42:51.473Z,98155.78
2022-10-01T18:45:29.565Z,98152.78
2022-10-01T18:48:06.882Z,98163.31
2022-10-01T18:50:48.393Z,98161.28
2022-10-01T18:53:29.808Z,98170.63
2022-10-01T18:56:26.274Z,98180.28
2022-10-01T18:59:10.602Z,98184.97
2022-10-01T19:02:01.865Z,98176.63
2022-10-01T19:04:45.539Z,98180.28
2022-10-01T19:07:22.330Z,98187.25
2022-10-01T19:10:06.392Z,98189.91
2022-10-01T19:13:03.945Z,98191.75
2022-10-01T19:15:49.827Z,98188.19
2022-10-01T19:18:22.132Z,98197.47
2022-10-01T19:21:25.946Z,98212.44
2022-10-01T19:24:07.608Z,98219.41
2022-10-01T19:26:44.362Z,98226.75
2022-10-01T19:29:10.663Z,98230.72
2022-10-01T19:32:07.418Z,98238.69
2022-10-01T19:35:12.777Z,98240.78
2022-10-01T19:37:50.305Z,98242.94
2022-10-01T19:40:43.066Z,98259.91
2022-10-01T19:43:24.812Z,98263.50
2022-10-01T19:46:03.186Z,98264.06
2022-10-01T19:48:29.595Z,98267.59
2022-10-01T19:51:07.196Z,98266.97
2022-10-01T19:53:35.148Z,98270.09
2022-10-01T19:56:02.551Z,98269.59
2022-10-01T19:58:30.579Z,98271.66
2022-10-01T20:01:00.079Z,98279.81
2022-10-01T20:03:29.717Z,98283.56
2022-10-01T20:06:06.976Z,98280.59
2022-10-01T20:08:41.764Z,98289.31
2022-10-01T20:11:29.102Z,98293.53
2022-10-01T20:14:10.726Z,98307.53
2022-10-01T20:16:45.206Z,98304.03
2022-10-01T20:19:35.260Z,98303.56
2022-10-01T20:22:20.827Z,98311.22
2022-10-01T20:25:03.091Z,98308.38
2022-10-01T20:27:59.038Z,98310.03
2022-10-01T20:30:30.302Z,98318.38
2022-10-01T20:33:17.070Z,98322.91
2022-10-01T20:36:14.421Z,98331.72
2022-10-01T20:38:49.721Z,98331.53
2022-10-01T20:41:19.868Z,98334.88
2022-10-01T20:43:57.485Z,98336.72
2022-10-01T20:46:38.848Z,98343.19
2022-10-01T20:49:18.017Z,98339.31
2022-10-01T20:51:55.421Z,98348.03
2022-10-01T20:54:31.610Z,98346.19
2022-10-01T20:57:20.048Z,98347.84
2022-10-01T20:59:52.105Z,98348.56
2022-10-01T21:02:38.184Z,98353.66
2022-10-01T21:05:13.896Z,98366.16
2022-10-01T21:07:48.726Z,98363.50
2022-10-01T21:10:40.236Z,98362.78
2022-10-01T21:13:14.884Z,98371.47
2022-10-01T21:15:59.568Z,98373.13
2022-10-01T21:18:45.590Z,98374.63
2022-10-01T21:21:32.567Z,98385.31
2022-10-01T21:24:16.672Z,98387.94
2022-10-01T21:27:09.945Z,98394.91
2022-10-01T21:30:05.315Z,98385.53
2022-10-01T21:33:06.014Z,98392.59
2022-10-01T21:35:56.793Z,98395.19
2022-10-01T21:38:32.150Z,98391.19
2022-10-01T21:41:12.997Z,98404.78
2022-10-01T21:43:58.101Z,98402.47
2022-10-01T21:46:36.723Z,98403.88
2022-10-01T21:49:32.013Z,98410.22
2022-10-01T21:52:18.876Z,98418.44
2022-10-01T21:55:03.535Z,98424.03
2022-10-01T21:57:54.847Z,98431.41
2022-10-01T22:00:25.812Z,98431.88
2022-10-01T22:03:07.545Z,98438.53
2022-10-01T22:05:39.498Z,98439.19
2022-10-01T22:08:30.003Z,98436.97
2022-10-01T22:11:12.307Z,98437.31
2022-10-01T22:13:44.771Z,98448.09
2022-10-01T22:16:14.348Z,98450.13
2022-10-01T22:18:49.004Z,98451.16
2022-10-01T22:21:22.983Z,98459.28
2022-10-01T22:23:58.916Z,98463.75
2022-10-01T22:26:29.716Z,98465.72
2022-10-01T22:28:56.893Z,98471.06
2022-10-01T22:31:28.973Z,98475.38
2022-10-01T22:34:00.957Z,98477.66
2022-10-01T22:36:46.231Z,98483.28
2022-10-01T22:39:24.566Z,98485.53
2022-10-01T22:42:10.864Z,98488.84
2022-10-01T22:44:37.321Z,98492.78
2022-10-01T22:47:18.099Z,98492.38
2022-10-01T22:50:06.759Z,98499.34
2022-10-01T22:52:44.604Z,98495.13
2022-10-01T22:55:24.462Z,98496.44
2022-10-01T22:58:02.972Z,98504.81
2022-10-01T23:00:36.362Z,98514.31
2022-10-01T23:03:28.332Z,98505.69
2022-10-01T23:06:14.582Z,98511.13
2022-10-01T23:08:57.088Z,98512.38
2022-10-01T23:11:44.389Z,98514.19
2022-10-01T23:14:28.843Z,98522.03
2022-10-01T23:17:11.464Z,98521.19
2022-10-01T23:19:50.029Z,98529.44
2022-10-01T23:22:39.653Z,98526.78
2022-10-01T23:25:06.101Z,98524.66
2022-10-01T23:28:07.688Z,98529.69
2022-10-01T23:30:57.339Z,98535.59
2022-10-01T23:33:41.377Z,98530.38
2022-10-01T23:36:20.582Z,98535.72
2022-10-01T23:39:16.441Z,98535.59
2022-10-01T23:41:53.637Z,98539.22
2022-10-01T23:44:49.887Z,98540.63
2022-10-01T23:47:25.616Z,98551.13
2022-10-01T23:49:55.091Z,98543.28
2022-10-01T23:52:52.294Z,98546.78
2022-10-01T23:56:00.862Z,98555.75
2022-10-01T23:58:30.002Z,98559.06
